Time;durP1;ratioP1;P1;durP2;ratioP2;P2;SDS_P1;SDS_P2;PMS_P1;PMS_P2;Temp;Humidity;BMP_temperature;BMP_pressure;BME280_temperature;BME280_humidity;BME280_pressure;Samples;Min_cycle;Max_cycle;Signal;HPM_P1;HPM_P2
2023/08/04 00:00:11;;;;;;;12.68;4.13;;;;;;;16.27;100.00;100882.22;5113302;28;20059;-62
2023/08/04 00:02:42;;;;;;;10.52;3.80;;;;;;;16.25;100.00;100885.25;5114884;28;20051;-62
2023/08/04 00:05:10;;;;;;;13.20;4.90;;;;;;;16.25;100.00;100884.44;5092927;28;20044;-61
2023/08/04 00:07:37;;;;;;;12.75;4.10;;;;;;;16.23;100.00;100872.94;5092978;28;20040;-61
2023/08/04 00:10:06;;;;;;;9.57;3.67;;;;;;;16.24;100.00;100880.09;5105971;28;20046;-62
2023/08/04 00:12:33;;;;;;;12.20;4.07;;;;;;;16.22;100.00;100882.31;5117450;28;20062;-61
2023/08/04 00:15:01;;;;;;;10.30;4.00;;;;;;;16.19;100.00;100886.50;5116210;28;20048;-61
2023/08/04 00:17:33;;;;;;;10.45;4.18;;;;;;;16.18;100.00;100888.41;5117166;28;20051;-62
2023/08/04 00:20:01;;;;;;;10.38;3.78;;;;;;;16.17;100.00;100889.53;5115557;28;20391;-59
2023/08/04 00:22:29;;;;;;;11.30;4.18;;;;;;;16.18;100.00;100893.91;5116233;28;20043;-62
2023/08/04 00:24:56;;;;;;;14.60;4.20;;;;;;;16.17;100.00;100896.97;5117749;28;20072;-63
2023/08/04 00:27:24;;;;;;;11.45;4.25;;;;;;;16.16;100.00;100901.66;5114784;28;20043;-61
2023/08/04 00:29:52;;;;;;;11.52;4.05;;;;;;;16.16;100.00;100906.31;5081140;28;20039;-63
2023/08/04 00:32:20;;;;;;;9.52;3.97;;;;;;;16.15;100.00;100904.69;5116148;28;20051;-64
2023/08/04 00:34:47;;;;;;;12.13;4.22;;;;;;;16.13;100.00;100895.94;5116816;28;20096;-62
2023/08/04 00:37:15;;;;;;;10.50;4.18;;;;;;;16.10;100.00;100907.56;5115973;28;20040;-63
2023/08/04 00:39:43;;;;;;;13.95;4.38;;;;;;;16.09;100.00;100901.25;5117043;28;20058;-61
2023/08/04 00:42:11;;;;;;;10.60;4.13;;;;;;;16.10;100.00;100902.06;5116688;28;20047;-63
2023/08/04 00:44:38;;;;;;;9.55;4.03;;;;;;;16.10;100.00;100908.34;5115534;28;20048;-61
2023/08/04 00:47:06;;;;;;;13.82;4.30;;;;;;;16.10;100.00;100913.03;5116874;28;20395;-61
2023/08/04 00:49:35;;;;;;;12.07;3.97;;;;;;;16.10;100.00;100913.84;5113153;28;20043;-62
2023/08/04 00:52:03;;;;;;;12.45;4.32;;;;;;;16.09;100.00;100915.00;5102125;28;20163;-61
2023/08/04 00:54:30;;;;;;;13.30;4.70;;;;;;;16.08;100.00;100921.59;5111424;28;20062;-61
2023/08/04 00:56:59;;;;;;;10.90;4.70;;;;;;;16.09;100.00;100917.75;5130917;28;20079;-63
2023/08/04 00:59:27;;;;;;;14.43;4.65;;;;;;;16.09;100.00;100923.22;5117003;28;20096;-61
2023/08/04 01:01:55;;;;;;;14.57;5.30;;;;;;;16.08;100.00;100921.59;5118743;28;20069;-63
2023/08/04 01:04:23;;;;;;;12.50;4.65;;;;;;;16.08;100.00;100918.84;5112395;28;20047;-61
2023/08/04 01:06:55;;;;;;;11.40;4.40;;;;;;;16.07;100.00;100928.22;5102191;28;20043;-63
2023/08/04 01:10:01;;;;;;;13.68;4.88;;;;;;;16.07;100.00;100930.97;5120615;28;20099;-62
2023/08/04 01:12:37;;;;;;;;;;;;;;;16.07;100.00;100933.72;5117294;28;20093;-61
2023/08/04 01:15:05;;;;;;;13.75;5.22;;;;;;;16.07;100.00;100941.97;5098048;28;19928;-63
2023/08/04 01:17:33;;;;;;;15.95;4.88;;;;;;;16.06;100.00;100940.31;5097951;28;20055;-62
2023/08/04 01:20:03;;;;;;;15.55;5.15;;;;;;;16.06;100.00;100940.31;5114849;28;20075;-62
2023/08/04 01:22:31;;;;;;;16.60;5.18;;;;;;;16.06;100.00;100943.06;5114760;28;20426;-62
2023/08/04 01:24:59;;;;;;;17.27;5.10;;;;;;;16.05;100.00;100944.19;5113501;28;20040;-64
2023/08/04 01:27:41;;;;;;;11.98;5.13;;;;;;;16.05;100.00;100943.38;5114265;28;20099;-62
2023/08/04 01:30:19;;;;;;;13.43;4.50;;;;;;;16.03;100.00;100946.41;5114521;28;20051;-63
2023/08/04 01:32:47;;;;;;;13.60;4.78;;;;;;;16.03;100.00;100946.41;5097863;28;20074;-62
2023/08/04 01:35:16;;;;;;;15.77;5.25;;;;;;;16.03;100.00;100945.59;5112609;28;20491;-61
2023/08/04 01:37:44;;;;;;;13.02;5.38;;;;;;;16.02;100.00;100950.28;5114222;28;20051;-63
2023/08/04 01:40:14;;;;;;;13.57;5.10;;;;;;;16.02;100.00;100950.28;5115901;28;20055;-62
2023/08/04 01:42:42;;;;;;;12.40;4.78;;;;;;;16.01;100.00;100948.66;5114250;28;20479;-62
2023/08/04 01:45:10;;;;;;;15.30;5.13;;;;;;;16.02;100.00;100960.44;5115676;28;20105;-61
2023/08/04 01:47:39;;;;;;;14.88;5.15;;;;;;;16.01;100.00;100950.59;5114419;28;20051;-62
2023/08/04 01:50:08;;;;;;;11.48;4.78;;;;;;;16.01;100.00;100958.84;5080565;28;20054;-62
2023/08/04 01:52:36;;;;;;;11.65;4.88;;;;;;;16.00;100.00;100958.03;5115698;28;20051;-62
2023/08/04 01:55:05;;;;;;;16.80;5.05;;;;;;;16.01;100.00;100951.41;5113816;28;20047;-63
2023/08/04 01:57:33;;;;;;;12.63;4.80;;;;;;;16.00;100.00;100958.03;5078263;28;20039;-63
2023/08/04 02:00:00;;;;;;;20.75;5.32;;;;;;;15.98;100.00;100960.25;5113441;28;20457;-62
2023/08/04 02:02:38;;;;;;;11.20;4.72;;;;;;;15.98;100.00;100957.50;5114953;28;20082;-63
2023/08/04 02:05:07;;;;;;;15.88;5.32;;;;;;;15.99;100.00;100961.88;5113637;28;20047;-63
2023/08/04 02:07:34;;;;;;;14.43;5.05;;;;;;;16.00;100.00;100959.97;5093217;28;20043;-62
2023/08/04 02:10:03;;;;;;;13.50;4.90;;;;;;;15.97;100.00;100956.69;5113011;28;20040;-61
2023/08/04 02:12:31;;;;;;;14.85;4.57;;;;;;;15.97;100.00;100966.88;5113087;28;20119;-62
2023/08/04 02:15:00;;;;;;;15.82;5.45;;;;;;;15.94;100.00;100965.50;5114636;28;20561;-64
2023/08/04 02:17:27;;;;;;;14.73;5.38;;;;;;;15.94;100.00;100971.00;5112683;28;20104;-61
2023/08/04 02:19:55;;;;;;;13.57;5.13;;;;;;;15.92;100.00;100969.69;5105050;28;20044;-65
2023/08/04 02:22:23;;;;;;;12.27;5.00;;;;;;;15.91;100.00;100971.63;5093189;28;20044;-64
2023/08/04 02:24:51;;;;;;;15.27;5.10;;;;;;;15.91;100.00;100968.88;5092592;28;20048;-63
2023/08/04 02:27:18;;;;;;;14.23;4.97;;;;;;;15.92;100.00;100972.44;5094302;28;20044;-63
2023/08/04 02:29:46;;;;;;;10.75;4.72;;;;;;;15.92;100.00;100972.44;5093821;28;20059;-64
2023/08/04 02:32:14;;;;;;;10.70;4.78;;;;;;;15.90;100.00;100971.94;5112802;28;20047;-65
2023/08/04 02:34:42;;;;;;;16.63;5.50;;;;;;;15.86;100.00;100985.44;5115020;28;20052;-62
2023/08/04 02:37:09;;;;;;;16.65;4.82;;;;;;;15.85;100.00;100977.50;5113918;28;20059;-62
2023/08/04 02:39:37;;;;;;;12.45;4.90;;;;;;;15.84;100.00;100979.44;5111307;28;20054;-62
2023/08/04 02:42:05;;;;;;;12.68;5.18;;;;;;;15.84;100.00;100976.69;5114868;28;20056;-61
2023/08/04 02:44:33;;;;;;;9.88;4.55;;;;;;;15.84;100.00;100975.88;5113975;28;20047;-62
2023/08/04 02:47:01;;;;;;;10.63;4.32;;;;;;;15.82;100.00;100978.91;5113247;28;20043;-62
2023/08/04 02:49:28;;;;;;;13.40;5.15;;;;;;;15.81;100.00;100979.22;5113521;28;20044;-62
2023/08/04 02:51:56;;;;;;;15.30;5.20;;;;;;;15.82;100.00;100978.09;5114992;28;20062;-63
2023/08/04 02:54:24;;;;;;;15.20;4.93;;;;;;;15.80;100.00;100980.31;5113094;28;20126;-64
2023/08/04 02:56:52;;;;;;;12.43;5.40;;;;;;;15.81;100.00;100976.47;5113010;28;20046;-61
2023/08/04 02:59:20;;;;;;;10.40;4.80;;;;;;;15.75;100.00;100976.56;5112185;28;20050;-63
2023/08/04 03:01:48;;;;;;;15.77;5.30;;;;;;;15.73;100.00;100970.56;5113324;28;20403;-62
2023/08/04 03:04:16;;;;;;;10.35;4.63;;;;;;;15.72;100.00;100979.09;5113773;28;20044;-63
2023/08/04 03:06:44;;;;;;;11.00;5.20;;;;;;;15.71;100.00;100978.28;5099795;28;20048;-60
2023/08/04 03:09:11;;;;;;;18.10;5.15;;;;;;;15.71;100.00;100982.97;5097734;28;20043;-62
2023/08/04 03:11:39;;;;;;;12.77;5.28;;;;;;;15.71;100.00;100975.53;5112494;28;20054;-62
2023/08/04 03:14:07;;;;;;;12.43;4.97;;;;;;;15.69;100.00;100985.97;5113865;28;20396;-64
2023/08/04 03:16:35;;;;;;;15.65;5.65;;;;;;;15.67;100.00;100988.19;5114038;28;20039;-63
2023/08/04 03:19:03;;;;;;;10.40;4.60;;;;;;;15.68;100.00;100989.84;5114563;28;20055;-64
2023/08/04 03:21:31;;;;;;;9.88;5.32;;;;;;;15.67;100.00;100993.69;5112524;28;20053;-63
2023/08/04 03:23:59;;;;;;;12.32;5.20;;;;;;;15.67;100.00;100987.38;5113564;28;20040;-63
2023/08/04 03:26:26;;;;;;;16.15;5.25;;;;;;;15.68;100.00;100994.50;5112510;28;20047;-64
2023/08/04 03:28:54;;;;;;;13.60;5.10;;;;;;;15.68;100.00;100995.31;5113530;28;20384;-65
2023/08/04 03:31:23;;;;;;;14.45;5.30;;;;;;;15.68;100.00;100998.06;5112104;28;20054;-64
2023/08/04 03:33:50;;;;;;;14.32;4.90;;;;;;;15.69;100.00;100996.94;5113408;28;20157;-64
2023/08/04 03:36:18;;;;;;;10.38;4.82;;;;;;;15.69;100.00;101001.63;5113476;28;20488;-63
2023/08/04 03:38:46;;;;;;;11.75;5.05;;;;;;;15.69;100.00;101002.44;5114199;28;20070;-65
2023/08/04 03:41:14;;;;;;;13.60;6.13;;;;;;;15.67;100.00;100996.44;5113582;28;20048;-65
2023/08/04 03:43:41;;;;;;;15.23;5.88;;;;;;;15.64;100.00;100999.78;5114669;28;20066;-62
2023/08/04 03:46:09;;;;;;;13.73;5.50;;;;;;;15.65;100.00;100998.66;5117682;28;20055;-63
2023/08/04 03:48:37;;;;;;;13.50;6.25;;;;;;;15.69;100.00;100996.94;5118158;28;20687;-62
2023/08/04 03:51:05;;;;;;;13.38;5.65;;;;;;;15.69;100.00;100999.69;5116536;28;20044;-62
2023/08/04 03:53:32;;;;;;;15.13;5.03;;;;;;;15.69;100.00;101001.63;5116320;28;20415;-63
2023/08/04 03:56:00;;;;;;;11.05;5.30;;;;;;;15.69;100.00;101002.44;5117489;28;20050;-62
2023/08/04 03:58:28;;;;;;;11.98;4.93;;;;;;;15.70;100.00;101011.53;5117516;28;20387;-64
2023/08/04 04:00:56;;;;;;;13.20;5.00;;;;;;;15.68;100.00;101008.22;5117270;28;20054;-62
2023/08/04 04:03:24;;;;;;;13.27;5.13;;;;;;;15.68;100.00;101006.31;5102099;28;20486;-64
2023/08/04 04:05:51;;;;;;;11.27;4.60;;;;;;;15.67;100.00;101001.91;5115784;28;20048;-64
2023/08/04 04:08:19;;;;;;;11.63;5.53;;;;;;;15.66;100.00;101003.03;5115120;28;20380;-62
2023/08/04 04:10:48;;;;;;;12.57;5.03;;;;;;;15.66;100.00;101011.28;5116073;28;20061;-64
2023/08/04 04:13:16;;;;;;;10.70;4.47;;;;;;;15.66;100.00;101014.03;5114068;28;20484;-64
2023/08/04 04:15:44;;;;;;;12.18;5.15;;;;;;;15.66;100.00;101008.53;5107382;28;20036;-63
2023/08/04 04:18:12;;;;;;;11.07;4.40;;;;;;;15.67;100.00;101010.16;5117142;28;20078;-62
2023/08/04 04:20:40;;;;;;;10.27;4.57;;;;;;;15.70;100.00;101011.53;5115730;28;20051;-65
2023/08/04 04:23:08;;;;;;;12.25;4.40;;;;;;;15.71;100.00;101015.91;5078300;28;20044;-62
2023/08/04 04:25:36;;;;;;;13.20;4.97;;;;;;;15.70;100.00;101017.03;5095770;28;20499;-63
2023/08/04 04:28:04;;;;;;;11.40;4.78;;;;;;;15.69;100.00;101018.94;5096764;28;20059;-63
2023/08/04 04:30:32;;;;;;;11.48;4.97;;;;;;;15.69;100.00;101029.91;5110115;28;20051;-63
2023/08/04 04:33:00;;;;;;;10.30;4.00;;;;;;;15.70;100.00;101036.25;5116314;28;20400;-63
2023/08/04 04:35:27;;;;;;;16.05;5.40;;;;;;;15.72;100.00;101034.03;5094887;28;20491;-61
2023/08/04 04:37:55;;;;;;;11.48;4.72;;;;;;;15.71;100.00;101033.22;5095976;28;20051;-61
2023/08/04 04:40:23;;;;;;;11.38;4.90;;;;;;;15.72;100.00;101028.53;5106627;28;20535;-61
2023/08/04 04:42:51;;;;;;;11.45;4.82;;;;;;;15.71;100.00;101024.97;5113310;28;20559;-64
2023/08/04 04:45:19;;;;;;;10.40;5.00;;;;;;;15.71;100.00;101035.97;5115515;28;20052;-63
2023/08/04 04:47:46;;;;;;;14.15;5.05;;;;;;;15.71;100.00;101033.22;5116444;28;20050;-65
2023/08/04 04:50:14;;;;;;;12.52;4.60;;;;;;;15.69;100.00;101038.16;5115937;28;20044;-63
2023/08/04 04:52:42;;;;;;;15.10;5.07;;;;;;;15.70;100.00;101042.56;5112726;28;20040;-64
2023/08/04 04:55:10;;;;;;;11.23;4.70;;;;;;;15.67;100.00;101037.63;5115230;28;20050;-61
2023/08/04 04:57:40;;;;;;;13.60;5.68;;;;;;;15.69;100.00;101042.84;5115134;28;20047;-62
2023/08/04 05:00:08;;;;;;;11.43;4.57;;;;;;;15.69;100.00;101043.66;5115990;28;20050;-65
2023/08/04 05:02:36;;;;;;;12.80;4.40;;;;;;;15.69;100.00;101040.09;5115096;28;20048;-62
2023/08/04 05:05:04;;;;;;;12.98;5.28;;;;;;;15.70;100.00;101047.22;5114234;28;20046;-63
2023/08/04 05:07:32;;;;;;;13.85;4.82;;;;;;;15.71;100.00;101046.94;5115840;28;20051;-62
2023/08/04 05:09:59;;;;;;;12.05;5.13;;;;;;;15.72;100.00;101043.06;5115098;28;20051;-63
2023/08/04 05:12:27;;;;;;;12.43;4.78;;;;;;;15.72;100.00;101051.31;5115353;28;20040;-63
2023/08/04 05:14:55;;;;;;;13.40;5.75;;;;;;;15.72;100.00;101054.06;5115254;28;20047;-62
2023/08/04 05:17:23;;;;;;;13.88;6.13;;;;;;;15.73;100.00;101063.97;5116297;28;20032;-62
2023/08/04 05:19:51;;;;;;;19.15;5.97;;;;;;;15.73;100.00;101063.97;5116118;28;20051;-64
2023/08/04 05:22:19;;;;;;;13.23;4.88;;;;;;;15.75;100.00;101066.38;5129064;28;20059;-62
2023/08/04 05:24:46;;;;;;;11.82;4.97;;;;;;;15.77;100.00;101059.47;5119350;28;20149;-62
2023/08/04 05:27:28;;;;;;;13.73;5.38;;;;;;;15.80;100.00;101071.81;5102318;28;20165;-62
2023/08/04 05:29:55;;;;;;;13.38;4.95;;;;;;;15.79;100.00;101072.13;5104648;28;20052;-63
2023/08/04 05:32:23;;;;;;;11.75;5.05;;;;;;;15.79;100.00;101072.94;5128363;28;20512;-60
2023/08/04 05:34:59;;;;;;;9.80;4.50;;;;;;;15.80;100.00;101074.56;5112772;28;20460;-64
2023/08/04 05:37:27;;;;;;;13.27;4.85;;;;;;;15.82;100.00;101072.34;5123747;28;20126;-63
2023/08/04 05:39:54;;;;;;;11.55;4.90;;;;;;;15.82;100.00;101077.00;5116585;28;20530;-63
2023/08/04 05:42:22;;;;;;;11.13;4.85;;;;;;;15.83;100.00;101078.66;4761125;28;10000789;-66
2023/08/04 05:44:50;;;;;;;14.63;5.40;;;;;;;15.86;100.00;101080.81;5112406;28;20047;-63
2023/08/04 05:47:19;;;;;;;11.27;5.00;;;;;;;15.88;100.00;101089.56;5112327;28;20051;-64
2023/08/04 05:49:47;;;;;;;13.20;5.55;;;;;;;15.90;100.00;101085.41;5112242;28;20441;-66
2023/08/04 05:52:15;;;;;;;15.20;6.30;;;;;;;15.92;100.00;101079.59;5112519;28;20450;-64
2023/08/04 05:54:43;;;;;;;15.23;5.63;;;;;;;15.92;100.00;101085.94;5110937;28;20063;-64
2023/08/04 05:57:10;;;;;;;14.75;5.32;;;;;;;15.93;100.00;101092.25;5111729;28;20055;-63
2023/08/04 05:59:38;;;;;;;12.55;5.25;;;;;;;15.90;100.00;101095.59;5112961;28;20044;-65
2023/08/04 06:02:06;;;;;;;14.63;5.25;;;;;;;15.90;100.00;101107.41;5113940;28;20397;-64
2023/08/04 06:04:34;;;;;;;18.85;6.00;;;;;;;15.90;100.00;101112.09;5111516;28;20055;-63
2023/08/04 06:07:02;;;;;;;13.25;5.50;;;;;;;15.90;100.00;101109.34;5109616;28;20047;-65
2023/08/04 06:09:29;;;;;;;17.60;5.75;;;;;;;15.91;100.00;101119.22;5112110;28;20047;-63
2023/08/04 06:11:57;;;;;;;16.60;5.72;;;;;;;15.92;100.00;101115.34;5112187;28;20054;-63
2023/08/04 06:14:25;;;;;;;19.92;5.50;;;;;;;15.92;100.00;101115.34;5095295;28;20471;-64
2023/08/04 06:16:53;;;;;;;16.35;6.05;;;;;;;15.96;100.00;101110.88;5110353;28;20055;-62
2023/08/04 06:19:20;;;;;;;16.73;6.03;;;;;;;16.02;100.00;101117.94;5109209;28;20051;-66
2023/08/04 06:21:48;;;;;;;15.75;5.68;;;;;;;16.03;100.00;101118.75;5111512;28;20041;-62
2023/08/04 06:24:27;;;;;;;13.75;5.80;;;;;;;16.05;100.00;101120.09;5109754;28;20044;-65
2023/08/04 06:26:54;;;;;;;13.13;5.45;;;;;;;16.09;100.00;101121.16;5108901;28;20043;-64
2023/08/04 06:29:22;;;;;;;9.45;4.53;;;;;;;16.15;100.00;101122.69;5112506;28;20411;-64
2023/08/04 06:31:50;;;;;;;12.68;5.40;;;;;;;16.19;100.00;101126.47;5113863;28;20046;-65
2023/08/04 06:34:20;;;;;;;13.40;5.22;;;;;;;16.22;100.00;101135.25;5096522;28;20158;-64
2023/08/04 06:36:48;;;;;;;15.52;5.80;;;;;;;16.22;100.00;101135.25;5113131;28;20403;-63
2023/08/04 06:39:16;;;;;;;12.43;4.85;;;;;;;16.25;100.00;101140.16;5114426;28;20043;-64
2023/08/04 06:41:44;;;;;;;12.50;5.25;;;;;;;16.26;100.00;101136.28;5113447;28;20048;-64
2023/08/04 06:44:13;;;;;;;12.77;5.20;;;;;;;16.31;100.00;101142.53;5114621;28;20052;-64
2023/08/04 06:46:42;;;;;;;9.95;4.82;;;;;;;16.35;100.00;101145.47;5113167;28;20471;-63
2023/08/04 06:49:09;;;;;;;14.93;5.32;;;;;;;16.36;100.00;101149.88;5111449;28;20070;-63
2023/08/04 06:51:37;;;;;;;9.82;4.25;;;;;;;16.33;100.00;101148.56;5114482;28;20092;-63
2023/08/04 06:54:05;;;;;;;11.30;4.28;;;;;;;16.33;100.00;101151.31;5113661;28;20387;-65
2023/08/04 06:56:34;;;;;;;10.88;4.40;;;;;;;16.32;100.00;101157.09;5113792;28;20053;-64
2023/08/04 06:59:01;;;;;;;10.27;3.92;;;;;;;16.30;100.00;101154.63;5113494;28;20051;-64
2023/08/04 07:01:29;;;;;;;9.95;4.28;;;;;;;16.30;100.00;101153.81;5112587;28;20039;-66
2023/08/04 07:03:57;;;;;;;14.18;4.68;;;;;;;16.30;100.00;101159.31;5093695;28;20063;-64
2023/08/04 07:06:25;;;;;;;14.60;4.53;;;;;;;16.28;100.00;101156.03;5092518;28;20048;-63
2023/08/04 07:08:52;;;;;;;12.60;4.35;;;;;;;16.27;100.00;101168.97;5093596;28;20063;-66
2023/08/04 07:11:21;;;;;;;11.07;4.10;;;;;;;16.28;100.00;101167.03;5112015;28;20046;-62
2023/08/04 07:13:49;;;;;;;12.48;4.22;;;;;;;16.28;100.00;101162.34;5113929;28;20050;-63
2023/08/04 07:16:17;;;;;;;10.93;4.47;;;;;;;16.29;100.00;101157.69;5095904;28;20043;-63
2023/08/04 07:18:45;;;;;;;12.27;4.25;;;;;;;16.30;100.00;101162.88;5116592;28;20040;-63
2023/08/04 07:21:13;;;;;;;9.90;4.07;;;;;;;16.32;100.00;101162.59;5116295;28;20058;-63
2023/08/04 07:23:43;;;;;;;14.57;4.47;;;;;;;16.34;100.00;101172.16;5117933;28;20051;-62
2023/08/04 07:26:10;;;;;;;14.85;4.28;;;;;;;16.37;100.00;101176.25;5117009;28;20498;-63
2023/08/04 07:28:38;;;;;;;10.48;4.60;;;;;;;16.39;100.00;101179.53;5118582;27;20043;-64
2023/08/04 07:31:08;;;;;;;13.85;4.75;;;;;;;16.41;100.00;101174.56;5110118;28;20044;-64
2023/08/04 07:33:36;;;;;;;10.90;4.60;;;;;;;16.43;100.00;101169.56;5113120;28;20411;-63
2023/08/04 07:36:05;;;;;;;17.30;5.10;;;;;;;16.46;100.00;101174.47;5116835;28;20039;-65
2023/08/04 07:38:33;;;;;;;10.88;4.60;;;;;;;16.49;100.00;101179.38;5107625;28;20684;-62
2023/08/04 07:41:00;;;;;;;13.60;4.57;;;;;;;16.51;100.00;101171.63;5088745;28;20035;-65
2023/08/04 07:43:28;;;;;;;11.63;4.43;;;;;;;16.52;100.00;101180.69;5115555;28;20043;-62
2023/08/04 07:45:57;;;;;;;11.20;4.47;;;;;;;16.54;100.00;101186.72;5117655;28;20092;-63
2023/08/04 07:48:25;;;;;;;12.20;4.65;;;;;;;16.57;100.00;101181.44;5100610;28;20031;-64
2023/08/04 07:50:53;;;;;;;11.18;4.78;;;;;;;16.60;100.00;101191.84;5116098;28;20040;-64
2023/08/04 07:53:20;;;;;;;9.68;4.03;;;;;;;16.66;100.00;101183.50;5114602;28;20058;-65
2023/08/04 07:55:58;;;;;;;16.33;4.47;;;;;;;16.68;100.00;101190.34;5099042;28;20051;-65
2023/08/04 07:58:26;;;;;;;11.88;4.60;;;;;;;16.70;100.00;101195.56;5116173;28;20044;-63
2023/08/04 08:00:54;;;;;;;11.15;4.45;;;;;;;16.73;100.00;101194.94;5115055;28;20051;-64
2023/08/04 08:03:22;;;;;;;7.93;3.70;;;;;;;16.74;100.00;101191.06;5115116;28;20059;-63
2023/08/04 08:05:50;;;;;;;12.95;4.03;;;;;;;16.75;100.00;101195.47;5110616;28;20044;-64
2023/08/04 08:08:18;;;;;;;8.43;4.38;;;;;;;16.75;100.00;101192.72;5083926;28;20047;-63
2023/08/04 08:10:46;;;;;;;9.55;3.88;;;;;;;16.74;100.00;101200.16;5114921;28;20062;-65
2023/08/04 08:13:14;;;;;;;11.90;3.80;;;;;;;16.76;100.00;101197.94;5115132;28;20048;-65
2023/08/04 08:15:41;;;;;;;11.70;3.88;;;;;;;16.79;100.00;101200.09;5116815;28;20048;-64
2023/08/04 08:18:09;;;;;;;11.05;3.90;;;;;;;16.81;100.00;101206.13;5107831;28;20044;-63
2023/08/04 08:20:44;;;;;;;9.23;3.67;;;;;;;16.85;100.00;101198.06;5110597;28;20047;-63
2023/08/04 08:23:11;;;;;;;13.70;4.93;;;;;;;16.91;100.00;101201.53;5090819;28;20048;-64
2023/08/04 08:25:41;;;;;;;8.45;3.38;;;;;;;16.95;100.00;101206.16;5114418;28;20491;-64
2023/08/04 08:28:09;;;;;;;10.68;3.55;;;;;;;16.98;100.00;101208.31;5117003;28;20511;-64
2023/08/04 08:30:36;;;;;;;8.95;3.50;;;;;;;17.00;100.00;101208.00;5113317;28;20054;-65
2023/08/04 08:33:04;;;;;;;10.75;3.75;;;;;;;17.02;100.00;101208.53;5088972;28;20036;-63
2023/08/04 08:35:32;;;;;;;8.95;3.40;;;;;;;17.03;100.00;101205.47;5114348;28;20107;-64
2023/08/04 08:38:00;;;;;;;7.68;2.90;;;;;;;17.06;100.00;101208.75;5097555;28;20491;-62
2023/08/04 08:40:27;;;;;;;9.48;3.53;;;;;;;17.08;100.00;101212.84;5114297;28;20074;-63
2023/08/04 08:42:56;;;;;;;10.90;3.35;;;;;;;17.11;100.00;101222.41;5097096;28;20047;-64
2023/08/04 08:45:27;;;;;;;4.43;2.72;;;;;;;17.13;100.00;101225.69;5113262;28;20054;-63
2023/08/04 08:47:56;;;;;;;6.53;2.83;;;;;;;17.15;100.00;101224.28;5116106;28;20048;-64
2023/08/04 08:50:26;;;;;;;8.52;3.25;;;;;;;17.16;100.00;101225.88;5114792;28;20066;-64
2023/08/04 08:53:02;;;;;;;8.90;3.67;;;;;;;17.13;100.00;101228.44;5116211;28;20523;-63
2023/08/04 08:55:30;;;;;;;8.98;3.08;;;;;;;17.13;100.00;101226.50;5115757;28;20062;-65
2023/08/04 08:57:59;;;;;;;8.43;3.38;;;;;;;17.14;100.00;101238.31;5115002;28;20373;-63
2023/08/04 09:00:28;;;;;;;8.25;3.00;;;;;;;17.15;100.00;101234.44;5098141;28;20055;-64
2023/08/04 09:02:56;;;;;;;9.38;3.50;;;;;;;17.16;100.00;101244.34;5116159;28;20059;-64
2023/08/04 09:05:24;;;;;;;8.25;3.22;;;;;;;17.13;100.00;101237.53;5115216;28;20066;-62
2023/08/04 09:07:52;;;;;;;8.40;3.22;;;;;;;17.15;100.00;101239.94;5116493;27;20039;-68
2023/08/04 09:10:21;;;;;;;8.02;2.95;;;;;;;17.16;100.00;101242.41;5115982;28;20514;-64
2023/08/04 09:12:54;;;;;;;9.68;3.47;;;;;;;17.19;100.00;101238.25;5079289;28;20051;-65
2023/08/04 09:15:33;;;;;;;7.63;2.85;;;;;;;17.20;100.00;101240.69;5113056;28;20052;-65
2023/08/04 09:18:09;;;;;;;8.25;2.92;;;;;;;17.28;100.00;101243.88;5092507;28;20040;-65
2023/08/04 09:20:37;;;;;;;8.15;2.67;;;;;;;17.35;100.00;101242.34;5113909;28;20074;-63
2023/08/04 09:23:11;;;;;;;7.50;2.60;;;;;;;17.41;100.00;101249.41;5115149;28;20052;-65
2023/08/04 09:25:53;;;;;;;7.28;2.80;;;;;;;17.43;100.00;101251.84;5113136;28;20052;-64
2023/08/04 09:28:20;;;;;;;7.45;2.53;;;;;;;17.46;100.00;101254.84;5115749;28;20063;-64
2023/08/04 09:31:11;;;;;;;5.90;2.72;;;;;;;17.51;100.00;101247.56;5113564;28;20051;-63
2023/08/04 09:33:41;;;;;;;5.88;2.50;;;;;;;17.54;100.00;101250.53;5104071;28;20514;-63
2023/08/04 09:36:17;;;;;;;6.45;2.60;;;;;;;17.56;100.00;101251.06;5112318;28;20048;-64
2023/08/04 09:38:45;;;;;;;10.63;3.28;;;;;;;17.59;100.00;101255.16;5113621;28;20209;-63
2023/08/04 09:41:14;;;;;;;6.85;3.13;;;;;;;17.62;100.00;101260.84;5110703;28;20057;-68
2023/08/04 09:43:46;;;;;;;13.43;5.15;;;;;;;17.67;100.00;101257.19;5113969;28;20039;-64
2023/08/04 09:46:14;;;;;;;11.48;4.07;;;;;;;17.76;100.00;101263.63;5116365;28;20601;-63
2023/08/04 09:48:42;;;;;;;7.85;3.08;;;;;;;17.85;100.00;101250.78;5118950;28;20150;-63
2023/08/04 09:51:14;;;;;;;8.18;2.97;;;;;;;17.88;100.00;101271.41;5126688;28;20168;-61
2023/08/04 09:53:47;;;;;;;6.15;2.90;;;;;;;17.84;100.00;101265.69;5118761;28;20054;-63
2023/08/04 09:56:17;;;;;;;4.22;2.10;;;;;;;17.67;100.00;101280.03;5118479;28;20108;-61
2023/08/04 09:58:46;;;;;;;3.70;1.80;;;;;;;17.54;100.00;101285.56;5102610;28;20047;-63
2023/08/04 10:01:15;;;;;;;5.85;2.35;;;;;;;17.48;100.00;101278.50;5122931;28;20104;-63
2023/08/04 10:03:51;;;;;;;2.72;1.92;;;;;;;17.43;100.00;101274.69;5129119;28;20095;-62
2023/08/04 10:06:20;;;;;;;3.85;1.60;;;;;;;17.43;100.00;101274.69;5124456;28;20131;-61
2023/08/04 10:08:50;;;;;;;6.00;1.88;;;;;;;17.41;100.00;101267.84;5094388;28;20043;-63
2023/08/04 10:11:18;;;;;;;4.75;2.05;;;;;;;17.44;100.00;101270.84;5093602;28;20467;-65
2023/08/04 10:13:48;;;;;;;4.50;1.98;;;;;;;17.45;100.00;101279.91;5094770;28;20052;-64
2023/08/04 10:16:18;;;;;;;4.78;2.22;;;;;;;17.45;100.00;101275.22;5111358;28;20051;-64
2023/08/04 10:18:53;;;;;;;5.07;2.03;;;;;;;17.53;100.00;101267.38;5113360;28;20414;-64
2023/08/04 10:21:27;;;;;;;7.93;2.53;;;;;;;17.64;100.00;101268.81;5113795;28;20047;-64
2023/08/04 10:23:57;;;;;;;4.38;2.00;;;;;;;17.70;100.00;101261.25;5113282;28;20039;-63
2023/08/04 10:26:25;;;;;;;4.80;2.20;;;;;;;17.70;100.00;101273.09;5114190;28;20058;-64
2023/08/04 10:29:05;;;;;;;4.10;2.00;;;;;;;17.78;100.00;101261.38;5115030;28;20055;-64
2023/08/04 10:31:46;;;;;;;9.25;2.58;;;;;;;17.87;100.00;101270.59;5107460;28;20054;-65
2023/08/04 10:34:31;;;;;;;6.20;2.30;;;;;;;17.97;100.00;101261.31;5092532;28;20051;-64
2023/08/04 10:37:12;;;;;;;22.40;11.43;;;;;;;18.07;100.00;101261.09;5111655;28;20381;-68
2023/08/04 10:39:45;;;;;;;14.80;7.90;;;;;;;18.17;100.00;101260.06;5111431;28;20088;-65
2023/08/04 10:42:12;;;;;;;6.97;3.20;;;;;;;18.18;100.00;101261.69;5092352;28;20044;-65
2023/08/04 10:45:05;;;;;;;6.72;2.83;;;;;;;18.16;100.00;101268.63;5113265;28;20047;-66
2023/08/04 10:47:51;;;;;;;5.63;2.70;;;;;;;18.13;100.00;101278.34;5107398;28;20058;-64
2023/08/04 10:50:38;;;;;;;5.85;2.70;;;;;;;18.17;100.00;101270.28;5112469;28;20059;-65
2023/08/04 10:53:06;;;;;;;10.02;4.32;;;;;;;18.20;100.00;101275.97;5112767;27;20056;-65
2023/08/04 10:55:34;;;;;;;5.18;2.65;;;;;;;18.24;98.43;101277.00;5111899;28;20121;-63
2023/08/04 10:58:15;;;;;;;8.52;3.20;;;;;;;18.36;99.34;101283.94;5114036;28;20051;-65
2023/08/04 11:00:46;;;;;;;5.65;2.92;;;;;;;18.41;95.12;101276.38;5112296;28;20093;-63
2023/08/04 11:03:36;;;;;;;7.13;2.80;;;;;;;18.45;94.15;101276.56;5096491;28;20056;-65
2023/08/04 11:06:04;;;;;;;6.80;2.60;;;;;;;18.49;94.45;101283.09;5112783;28;20047;-65
2023/08/04 11:08:32;;;;;;;8.13;2.95;;;;;;;18.48;94.30;101281.47;5092204;28;20051;-64
2023/08/04 11:11:01;;;;;;;7.25;2.70;;;;;;;18.45;95.81;101282.09;5075860;28;20052;-65
2023/08/04 11:13:29;;;;;;;4.95;3.10;;;;;;;18.53;96.24;101290.44;5092513;28;20412;-65
2023/08/04 11:15:57;;;;;;;5.68;2.50;;;;;;;18.57;93.58;101278.78;5093432;28;20044;-64
2023/08/04 11:18:29;;;;;;;6.88;2.83;;;;;;;18.56;93.79;101291.75;5093217;28;20048;-65
2023/08/04 11:21:01;;;;;;;3.92;2.60;;;;;;;18.55;93.04;101290.13;5105907;28;20094;-63